createdAt,value
2022-09-11T10:15:53.848Z,55.70
2022-09-11T10:16:53.721Z,60.90
2022-09-11T10:17:53.687Z,53.60
2022-09-11T10:18:53.679Z,49.80
2022-09-11T10:19:53.663Z,48.40
2022-09-11T10:20:53.636Z,54.20
2022-09-11T10:21:53.630Z,48.40
2022-09-11T10:22:53.626Z,54.10
2022-09-11T10:23:53.591Z,49.10
2022-09-11T10:24:53.576Z,48.80
2022-09-11T10:26:55.338Z,50.20
2022-09-11T10:27:55.334Z,50.60
2022-09-11T10:28:55.293Z,48.60
2022-09-11T10:29:55.289Z,48.50
2022-09-11T10:33:36.840Z,39.10
2022-09-11T10:34:36.821Z,49.90
2022-09-11T10:35:36.796Z,46.10
2022-09-11T10:36:36.779Z,47.90
2022-09-11T10:37:36.786Z,45.40
2022-09-11T10:38:41.136Z,51.70
2022-09-11T10:39:36.782Z,47.70
2022-09-11T10:40:36.717Z,42.70
2022-09-11T10:41:36.713Z,45.50
2022-09-11T10:42:36.709Z,45.40
2022-09-11T10:43:36.685Z,47.70
2022-09-11T10:44:36.668Z,43.40
2022-09-11T10:45:36.662Z,42.90
2022-09-11T10:46:37.496Z,40.60
2022-09-11T10:47:36.629Z,41.60
2022-09-11T10:48:53.416Z,34.00
2022-09-11T11:05:09.534Z,26.90
2022-09-11T11:06:47.719Z,25.20
2022-09-11T11:07:47.712Z,31.00
2022-09-11T11:08:47.717Z,28.10
2022-09-11T11:13:17.282Z,21.00
2022-09-11T11:14:17.244Z,25.70
2022-09-11T11:15:17.229Z,25.30
2022-09-11T11:16:17.246Z,24.70
2022-09-11T11:17:17.198Z,27.00
2022-09-11T11:18:17.198Z,25.40
2022-09-11T11:19:17.168Z,25.20
2022-09-11T11:20:17.161Z,24.10
2022-09-11T11:21:17.148Z,25.70
2022-09-11T11:30:23.700Z,16.50
2022-09-11T11:31:23.739Z,19.90
2022-09-11T11:32:23.649Z,20.60
2022-09-11T11:33:23.644Z,21.30
2022-09-11T11:34:23.625Z,18.20
2022-09-11T11:35:23.604Z,18.20
2022-09-11T11:36:23.588Z,19.60
2022-09-11T11:38:42.117Z,18.80
2022-09-11T11:39:42.066Z,18.90
2022-09-11T11:40:42.000Z,18.00
2022-09-11T11:41:41.997Z,17.90
2022-09-11T11:42:41.979Z,17.70
2022-09-11T11:43:41.969Z,20.60
2022-09-11T11:44:41.953Z,19.20
2022-09-11T11:45:41.959Z,19.20
2022-09-11T11:46:41.913Z,17.40
2022-09-11T11:47:41.924Z,18.50
2022-09-11T11:48:41.928Z,17.50
2022-09-11T11:49:41.875Z,16.90
2022-09-11T11:50:49.737Z,17.60
2022-09-11T11:51:41.845Z,19.40
2022-09-11T11:52:41.836Z,18.80
2022-09-11T11:53:41.833Z,17.00
2022-09-11T11:54:41.807Z,19.60
2022-09-11T11:55:41.788Z,17.70
2022-09-11T11:56:41.782Z,18.60
2022-09-11T11:57:41.761Z,18.70
2022-09-11T11:58:41.814Z,17.70
2022-09-11T11:59:41.745Z,20.00
2022-09-11T12:00:41.723Z,17.20
2022-09-11T12:01:41.778Z,19.30
2022-09-11T12:02:41.703Z,17.60
2022-09-11T12:03:41.735Z,17.20
2022-09-11T12:04:41.678Z,16.00
2022-09-11T12:05:41.652Z,15.30
2022-09-11T12:06:41.648Z,15.40
2022-09-11T12:07:41.628Z,15.70
2022-09-11T12:08:41.734Z,16.40
2022-09-11T12:09:41.610Z,17.90
2022-09-11T12:10:41.606Z,15.90
2022-09-11T12:11:41.577Z,16.10
2022-09-11T12:12:41.558Z,15.50
2022-09-11T12:13:41.555Z,16.10
2022-09-11T12:14:41.546Z,15.30
2022-09-11T12:15:41.529Z,14.50
2022-09-11T12:16:41.514Z,15.30
2022-09-11T12:17:41.495Z,13.80
2022-09-11T12:18:41.566Z,13.40
2022-09-11T12:19:41.467Z,13.60
2022-09-11T12:20:41.455Z,13.90
2022-09-11T12:21:41.442Z,15.30
2022-09-11T12:22:41.435Z,14.10
2022-09-11T12:23:41.428Z,13.70
2022-09-11T12:24:41.412Z,13.40
2022-09-11T12:28:15.898Z,12.50
2022-09-11T12:29:15.878Z,13.80
2022-09-11T12:30:15.871Z,12.70
2022-09-11T12:31:15.910Z,14.40
2022-09-11T12:32:15.846Z,13.30
2022-09-11T12:33:15.837Z,15.10
2022-09-11T12:34:15.819Z,12.10
2022-09-11T12:35:15.798Z,13.80
2022-09-11T12:36:15.795Z,12.80
2022-09-11T12:37:15.778Z,12.80
2022-09-11T12:38:15.784Z,11.90
2022-09-11T12:39:15.783Z,13.20
2022-09-11T12:40:15.769Z,12.60
2022-09-11T12:41:15.731Z,12.50
2022-09-11T12:42:15.727Z,12.00
2022-09-11T12:43:15.722Z,11.50
2022-09-11T12:44:15.685Z,11.90
2022-09-11T12:45:15.683Z,10.30
2022-09-11T12:46:15.662Z,12.90
2022-09-11T12:47:15.661Z,11.50
2022-09-11T12:48:15.662Z,13.10
2022-09-11T12:49:22.587Z,11.80
2022-09-11T12:50:15.612Z,11.20
2022-09-11T12:51:15.612Z,10.90
2022-09-11T12:52:15.598Z,10.80
2022-09-11T12:53:15.589Z,10.30
2022-09-11T12:54:15.574Z,9.60
2022-09-11T12:55:15.552Z,10.20
2022-09-11T12:57:04.928Z,9.70
2022-09-11T12:58:04.926Z,10.70
2022-09-11T12:59:04.888Z,11.60
2022-09-11T13:00:04.875Z,12.60
2022-09-11T13:01:04.908Z,12.00
2022-09-11T13:02:04.903Z,11.40
2022-09-11T13:03:04.858Z,11.40
2022-09-11T13:04:04.837Z,11.40
2022-09-11T13:05:04.814Z,11.70
2022-09-11T13:06:04.814Z,11.90
2022-09-11T13:07:04.801Z,13.10
2022-09-11T13:08:04.803Z,12.70
2022-09-11T13:09:04.777Z,11.30
2022-09-11T13:10:04.768Z,13.00
2022-09-11T13:11:04.755Z,12.50
2022-09-11T13:12:04.746Z,11.90
2022-09-11T13:13:04.736Z,12.20
2022-09-11T13:14:04.715Z,13.10
2022-09-11T13:15:04.711Z,13.10
2022-09-11T13:16:04.737Z,13.60
2022-09-11T13:17:04.689Z,12.30
2022-09-11T13:18:04.694Z,12.40
2022-09-11T13:19:04.669Z,12.40
2022-09-11T13:20:04.660Z,12.10
2022-09-11T13:21:04.641Z,11.40
2022-09-11T13:22:04.671Z,12.20
2022-09-11T13:23:04.643Z,11.50
2022-09-11T13:24:04.617Z,12.80
2022-09-11T13:25:04.599Z,12.10
2022-09-11T13:26:04.587Z,11.40
2022-09-11T13:27:04.585Z,12.00
2022-09-11T13:28:04.577Z,11.60
2022-09-11T13:29:04.564Z,11.70
2022-09-11T13:30:04.556Z,11.40
2022-09-11T13:31:04.585Z,10.90
2022-09-11T13:32:04.524Z,11.80
2022-09-11T13:33:04.531Z,10.10
2022-09-11T13:34:04.518Z,10.90
2022-09-11T13:35:04.502Z,11.20
2022-09-11T13:36:04.490Z,10.60
2022-09-11T13:37:04.472Z,11.00
2022-09-11T13:38:04.487Z,10.30
2022-09-11T13:39:04.466Z,11.50
2022-09-11T13:40:04.520Z,11.70
2022-09-11T13:41:04.438Z,11.50
2022-09-11T13:42:04.422Z,11.80
2022-09-11T13:43:04.432Z,11.10
2022-09-11T13:44:04.408Z,11.30
2022-09-11T13:45:04.402Z,12.90
2022-09-11T13:46:04.446Z,13.60
2022-09-11T13:47:04.372Z,12.20
2022-09-11T13:48:04.376Z,11.60
2022-09-11T13:49:04.354Z,12.00
2022-09-11T13:50:04.353Z,11.90
2022-09-11T13:51:04.335Z,11.70
2022-09-11T13:52:04.333Z,11.90
2022-09-11T13:53:04.327Z,11.50
2022-09-11T13:54:04.312Z,11.50
2022-09-11T13:55:04.306Z,12.20
2022-09-11T13:56:04.288Z,11.20
2022-09-11T13:57:04.292Z,11.40
2022-09-11T13:58:04.296Z,12.70
2022-09-11T13:59:04.271Z,10.50
2022-09-11T14:00:04.250Z,10.90
2022-09-11T14:01:04.252Z,10.30
2022-09-11T14:02:04.398Z,11.60
2022-09-11T14:03:04.236Z,12.60
2022-09-11T14:04:04.214Z,13.00
2022-09-11T14:05:04.207Z,12.00
2022-09-11T14:06:04.212Z,12.00
2022-09-11T14:07:04.197Z,11.60
2022-09-11T14:08:04.192Z,11.90
2022-09-11T14:09:04.180Z,12.80
2022-09-11T14:10:04.177Z,13.00
2022-09-11T14:11:07.100Z,13.70
2022-09-11T14:12:04.146Z,14.30
2022-09-11T14:13:04.169Z,13.20
2022-09-11T14:14:04.128Z,12.60
2022-09-11T14:15:04.118Z,12.30
2022-09-11T14:16:04.167Z,12.10
2022-09-11T14:17:04.111Z,11.90
2022-09-11T14:18:04.106Z,13.10
2022-09-11T14:19:04.095Z,12.00
2022-09-11T14:20:04.091Z,11.80
2022-09-11T14:21:04.070Z,11.90
2022-09-11T14:22:04.064Z,12.20
2022-09-11T14:23:04.069Z,10.60
2022-09-11T14:24:04.047Z,11.40
2022-09-11T14:25:04.042Z,11.00
2022-09-11T14:26:04.041Z,11.40
2022-09-11T14:27:04.026Z,11.30
2022-09-11T14:28:04.015Z,11.50
2022-09-11T14:29:04.029Z,12.00
2022-09-11T14:30:04.012Z,12.10
2022-09-11T14:31:04.029Z,12.20
2022-09-11T14:32:03.997Z,12.50
2022-09-11T14:33:03.979Z,11.60
2022-09-11T14:34:03.980Z,11.80
2022-09-11T14:35:03.961Z,11.90
2022-09-11T14:36:07.584Z,11.60
2022-09-11T14:37:03.944Z,11.60
2022-09-11T14:38:03.960Z,12.20
2022-09-11T14:39:03.932Z,11.40
2022-09-11T14:40:03.945Z,11.00
2022-09-11T14:41:03.922Z,11.60
2022-09-11T14:42:03.912Z,12.00
2022-09-11T14:43:03.895Z,11.90
2022-09-11T14:44:03.899Z,10.70
2022-09-11T14:45:03.889Z,11.00
2022-09-11T14:46:03.893Z,10.80
2022-09-11T14:47:03.863Z,11.50
2022-09-11T14:48:03.877Z,10.80
2022-09-11T14:49:03.845Z,11.50
2022-09-11T14:50:03.840Z,10.70
2022-09-11T14:51:03.832Z,11.10
2022-09-11T14:52:03.824Z,11.40
2022-09-11T14:53:03.822Z,11.70
2022-09-11T14:54:03.828Z,11.20
2022-09-11T14:55:03.799Z,11.10
2022-09-11T14:56:03.792Z,11.60
2022-09-11T14:59:26.917Z,11.50
2022-09-11T15:00:26.890Z,11.30
2022-09-11T15:01:26.954Z,11.50
2022-09-11T15:04:55.374Z,10.30
2022-09-11T15:05:55.342Z,11.60
2022-09-11T15:06:55.379Z,11.90
2022-09-11T15:07:55.337Z,11.40
2022-09-11T15:08:55.336Z,11.70
2022-09-11T15:09:55.315Z,12.10
2022-09-11T15:10:55.305Z,11.90
2022-09-11T15:11:55.286Z,11.70
2022-09-11T15:30:21.186Z,10.30
2022-09-11T16:17:46.942Z,10.40
2022-09-11T16:18:46.916Z,11.80
2022-09-11T16:19:46.926Z,12.10
2022-09-11T16:20:46.887Z,10.60
2022-09-11T16:21:46.876Z,10.30
2022-09-11T16:22:46.857Z,11.40
2022-09-11T16:23:51.138Z,10.60
